createdAt,value
2018-09-19T00:00:40.130Z,101264.19
2018-09-19T00:03:08.475Z,101257.84
2018-09-19T00:05:36.800Z,101257.89
2018-09-19T00:08:05.134Z,101263.78
2018-09-19T00:10:32.897Z,101257.97
2018-09-19T00:13:02.029Z,101252.88
2018-09-19T00:15:29.547Z,101252.80
2018-09-19T00:17:58.578Z,101248.38
2018-09-19T00:20:26.304Z,101252.03
2018-09-19T00:22:55.219Z,101256.05
2018-09-19T00:25:23.551Z,101255.51
2018-09-19T00:27:51.295Z,101254.98
2018-09-19T00:30:20.234Z,101249.50
2018-09-19T00:32:48.562Z,101247.72
2018-09-19T00:35:16.892Z,101248.20
2018-09-19T00:37:45.263Z,101252.33
2018-09-19T00:40:13.593Z,101245.33
2018-09-19T00:42:41.910Z,101243.11
2018-09-19T00:45:09.643Z,101238.55
2018-09-19T00:47:37.979Z,101245.21
2018-09-19T00:50:06.308Z,101243.73
2018-09-19T00:52:35.205Z,101247.42
2018-09-19T00:55:02.961Z,101243.89
2018-09-19T00:57:31.313Z,101243.63
2018-09-19T01:00:00.222Z,101251.28
2018-09-19T01:02:28.588Z,101250.55
2018-09-19T01:04:56.322Z,101248.89
2018-09-19T01:07:25.223Z,101245.99
2018-09-19T01:09:53.600Z,101243.76
2018-09-19T01:12:21.293Z,101248.48
2018-09-19T01:14:50.197Z,101244.64
2018-09-19T01:17:18.563Z,101243.80
2018-09-19T01:19:46.889Z,101244.38
2018-09-19T01:22:15.238Z,101247.19
2018-09-19T01:24:42.985Z,101245.75
2018-09-19T01:27:11.323Z,101246.17
2018-09-19T01:29:39.642Z,101246.20
2018-09-19T01:32:08.557Z,101244.03
2018-09-19T01:34:36.889Z,101245.00
2018-09-19T01:37:05.207Z,101252.09
2018-09-19T01:39:33.533Z,101247.84
2018-09-19T01:42:01.270Z,101250.66
2018-09-19T01:44:29.592Z,101250.42
2018-09-19T01:46:57.916Z,101248.41
2018-09-19T01:49:26.816Z,101247.17
2018-09-19T01:51:55.133Z,101250.27
2018-09-19T01:54:23.462Z,101248.97
2018-09-19T01:56:51.791Z,101249.63
2018-09-19T01:59:20.132Z,101250.48
2018-09-19T02:01:47.877Z,101255.28
2018-09-19T02:04:16.776Z,101250.59
2018-09-19T02:06:45.342Z,101251.42
2018-09-19T02:09:12.864Z,101258.45
2018-09-19T02:11:41.767Z,101250.97
2018-09-19T02:14:10.097Z,101252.94
2018-09-19T02:16:37.843Z,101256.05
2018-09-19T02:19:06.754Z,101253.27
2018-09-19T02:21:35.072Z,101253.81
2018-09-19T02:24:03.433Z,101253.12
2018-09-19T02:26:31.747Z,101255.55
2018-09-19T02:29:00.077Z,101251.29
2018-09-19T02:31:27.815Z,101254.77
2018-09-19T02:33:56.732Z,101252.72
2018-09-19T02:36:24.473Z,101253.48
2018-09-19T02:38:53.386Z,101250.77
2018-09-19T02:41:21.708Z,101253.69
2018-09-19T02:43:49.452Z,101249.09
2018-09-19T02:46:18.372Z,101243.02
2018-09-19T02:48:47.273Z,101236.65
2018-09-19T02:51:15.018Z,101233.82
2018-09-19T02:53:42.769Z,101229.23
2018-09-19T02:56:11.690Z,101237.44
2018-09-19T02:58:40.015Z,101230.64
2018-09-19T03:01:08.348Z,101234.85
2018-09-19T03:03:36.688Z,101234.45
2018-09-19T03:06:04.999Z,101240.49
2018-09-19T03:08:32.756Z,101246.77
2018-09-19T03:11:01.673Z,101249.27
2018-09-19T03:13:29.993Z,101243.91
2018-09-19T03:15:58.311Z,101244.63
2018-09-19T03:18:26.052Z,101243.61
2018-09-19T03:20:54.369Z,101238.80
2018-09-19T03:23:23.284Z,101241.56
2018-09-19T03:25:51.610Z,101248.55
2018-09-19T03:28:19.933Z,101252.21
2018-09-19T03:30:48.238Z,101259.83
2018-09-19T03:33:16.583Z,101256.44
2018-09-19T03:35:44.913Z,101255.94
2018-09-19T03:38:13.236Z,101260.53
2018-09-19T03:40:41.564Z,101251.86
2018-09-19T03:43:09.312Z,101262.77
2018-09-19T03:45:37.636Z,101259.80
2018-09-19T03:48:05.956Z,101273.47
2018-09-19T03:50:34.871Z,101257.78
2018-09-19T03:53:03.200Z,101259.14
2018-09-19T03:55:31.731Z,101261.86
2018-09-19T03:58:00.057Z,101260.70
2018-09-19T04:00:27.785Z,101267.59
2018-09-19T04:02:56.113Z,101259.19
2018-09-19T04:05:24.446Z,101273.78
2018-09-19T04:07:52.764Z,101261.25
2018-09-19T04:10:21.661Z,101259.76
2018-09-19T04:12:49.422Z,101268.20
2018-09-19T04:15:18.355Z,101280.55
2018-09-19T04:17:46.690Z,101271.47
2018-09-19T04:20:14.413Z,101283.91
2018-09-19T04:22:43.334Z,101274.88
2018-09-19T04:25:11.070Z,101261.80
2018-09-19T04:27:40.337Z,101265.67
2018-09-19T04:30:08.647Z,101269.36
2018-09-19T04:32:37.666Z,101274.94
2018-09-19T04:35:05.418Z,101274.44
2018-09-19T04:37:34.427Z,101269.84
2018-09-19T04:40:02.755Z,101269.06
2018-09-19T04:42:30.534Z,101280.05
2018-09-19T04:44:59.338Z,101280.92
2018-09-19T04:47:27.655Z,101267.52
2018-09-19T04:49:56.570Z,101265.56
2018-09-19T04:52:24.897Z,101293.20
2018-09-19T04:54:53.229Z,101281.97
2018-09-19T04:57:21.056Z,101286.50
2018-09-19T04:59:49.315Z,101294.19
2018-09-19T05:02:17.637Z,101286.41
2018-09-19T05:04:46.246Z,101291.81
2018-09-19T05:07:14.948Z,101302.84
2018-09-19T05:09:43.218Z,101303.94
2018-09-19T05:12:11.583Z,101303.95
2018-09-19T05:14:39.943Z,101302.47
2018-09-19T05:17:08.280Z,101303.41
2018-09-19T05:19:36.622Z,101314.78
2018-09-19T05:22:04.368Z,101309.84
2018-09-19T05:24:32.700Z,101313.89
2018-09-19T05:27:01.091Z,101318.04
2018-09-19T05:29:29.987Z,101313.38
2018-09-19T05:31:58.283Z,101316.35
2018-09-19T05:34:26.633Z,101324.38
2018-09-19T05:36:54.383Z,101328.19
2018-09-19T05:39:23.307Z,101334.03
2018-09-19T05:41:51.658Z,101328.87
2018-09-19T05:44:19.993Z,101323.55
2018-09-19T05:46:48.316Z,101326.28
2018-09-19T05:49:16.075Z,101320.66
2018-09-19T05:51:45.710Z,101326.09
2018-09-19T05:54:13.310Z,101326.22
2018-09-19T05:56:41.646Z,101325.25
2018-09-19T05:59:09.392Z,101327.56
2018-09-19T06:01:37.729Z,101339.56
2018-09-19T06:04:06.646Z,101333.55
2018-09-19T06:06:34.965Z,101340.94
2018-09-19T06:09:03.312Z,101350.17
2018-09-19T06:11:31.674Z,101339.66
2018-09-19T06:14:00.003Z,101345.02
2018-09-19T06:16:27.750Z,101353.74
2018-09-19T06:18:56.083Z,101356.90
2018-09-19T06:21:25.024Z,101355.01
2018-09-19T06:23:52.761Z,101358.17
2018-09-19T06:26:21.659Z,101359.48
2018-09-19T06:28:49.397Z,101356.91
2018-09-19T06:31:18.345Z,101359.66
2018-09-19T06:33:46.664Z,101366.42
2018-09-19T06:36:14.976Z,101366.87
2018-09-19T06:38:43.311Z,101360.56
2018-09-19T06:41:12.077Z,101369.42
2018-09-19T06:43:39.797Z,101372.59
2018-09-19T06:46:08.720Z,101369.75
2018-09-19T06:48:36.468Z,101374.17
2018-09-19T06:51:05.384Z,101381.12
2018-09-19T06:53:33.113Z,101380.97
2018-09-19T06:56:02.027Z,101387.45
2018-09-19T06:58:30.348Z,101394.80
2018-09-19T07:00:59.281Z,101402.98
2018-09-19T07:03:26.505Z,101409.06
2018-09-19T07:05:55.504Z,101411.28
2018-09-19T07:08:23.849Z,101414.28
2018-09-19T07:10:51.568Z,101415.81
2018-09-19T07:13:20.535Z,101419.33
2018-09-19T07:15:48.878Z,101425.29
2018-09-19T07:18:17.238Z,101419.93
2018-09-19T07:20:45.568Z,101420.43
2018-09-19T07:23:13.902Z,101417.95
2018-09-19T07:25:41.648Z,101418.06
2018-09-19T07:28:10.569Z,101421.48
2018-09-19T07:30:38.896Z,101421.34
2018-09-19T07:33:07.253Z,101427.56
2018-09-19T07:35:35.583Z,101433.52
2018-09-19T07:38:03.922Z,101433.70
2018-09-19T07:40:32.257Z,101442.41
2018-09-19T07:43:00.611Z,101445.14
2018-09-19T07:45:28.348Z,101444.77
2018-09-19T07:47:57.268Z,101439.98
2018-09-19T07:50:25.845Z,101442.42
2018-09-19T07:52:53.612Z,101449.10
2018-09-19T07:55:22.768Z,101451.48
2018-09-19T07:57:50.878Z,101446.79
2018-09-19T08:00:18.612Z,101439.05
2018-09-19T08:02:47.530Z,101437.32
2018-09-19T08:05:15.266Z,101443.90
2018-09-19T08:07:44.185Z,101451.06
2018-09-19T08:10:12.525Z,101451.98
2018-09-19T08:12:41.083Z,101454.43
2018-09-19T08:15:08.605Z,101455.08
2018-09-19T08:17:37.505Z,101458.63
2018-09-19T08:20:06.085Z,101457.14
2018-09-19T08:22:34.466Z,101452.31
2018-09-19T08:25:02.163Z,101459.27
2018-09-19T08:27:31.102Z,101464.10
2018-09-19T08:29:59.418Z,101466.09
2018-09-19T08:32:27.753Z,101464.89
2018-09-19T08:34:55.526Z,101473.34
2018-09-19T08:37:24.440Z,101470.38
2018-09-19T08:39:52.784Z,101475.59
2018-09-19T08:42:20.601Z,101476.42
2018-09-19T08:44:49.513Z,101478.73
2018-09-19T08:47:17.842Z,101472.23
2018-09-19T08:49:46.161Z,101472.45
2018-09-19T08:52:14.507Z,101474.95
2018-09-19T08:54:42.858Z,101484.14
2018-09-19T08:57:11.220Z,101478.20
2018-09-19T08:59:39.498Z,101488.95
2018-09-19T09:02:07.830Z,101484.00
2018-09-19T09:04:36.168Z,101499.39
2018-09-19T09:07:03.920Z,101496.75
2018-09-19T09:09:32.247Z,101509.52
2018-09-19T09:12:01.205Z,101508.91
2018-09-19T09:14:29.487Z,101506.02
2018-09-19T09:16:57.817Z,101512.14
2018-09-19T09:19:26.141Z,101512.77
2018-09-19T09:21:54.506Z,101515.45
2018-09-19T09:24:22.831Z,101513.36
2018-09-19T09:26:50.615Z,101515.77
2018-09-19T09:29:19.490Z,101516.99
2018-09-19T09:31:47.229Z,101517.77
2018-09-19T09:34:16.233Z,101519.34
2018-09-19T09:36:43.995Z,101527.55
2018-09-19T09:39:12.869Z,101525.94
2018-09-19T09:41:41.175Z,101523.93
2018-09-19T09:44:09.509Z,101529.40
2018-09-19T09:46:37.846Z,101535.61
2018-09-19T09:49:05.602Z,101533.78
2018-09-19T09:51:34.499Z,101520.61
2018-09-19T09:54:02.829Z,101524.44
2018-09-19T09:56:31.165Z,101525.39
2018-09-19T09:58:59.485Z,101529.48
2018-09-19T10:01:27.838Z,101529.56
2018-09-19T10:03:56.168Z,101520.88
2018-09-19T10:06:23.945Z,101527.80
2018-09-19T10:08:52.249Z,101529.92
2018-09-19T10:11:21.148Z,101527.20
2018-09-19T10:13:49.489Z,101527.61
2018-09-19T10:16:17.791Z,101530.31
2018-09-19T10:18:46.112Z,101532.16
2018-09-19T10:21:13.853Z,101528.12
2018-09-19T10:23:42.189Z,101532.55
2018-09-19T10:26:10.506Z,101532.77
2018-09-19T10:28:38.844Z,101538.22
2018-09-19T10:31:07.760Z,101533.18
2018-09-19T10:33:35.506Z,101535.66
2018-09-19T10:36:03.829Z,101530.36
2018-09-19T10:38:32.773Z,101534.43
2018-09-19T10:41:00.526Z,101527.97
2018-09-19T10:43:29.431Z,101531.58
2018-09-19T10:45:57.187Z,101533.77
2018-09-19T10:48:26.076Z,101530.61
2018-09-19T10:50:54.402Z,101531.30
2018-09-19T10:53:22.157Z,101533.81
2018-09-19T10:55:51.060Z,101533.19
2018-09-19T10:58:19.383Z,101524.09
2018-09-19T11:00:47.699Z,101522.71
2018-09-19T11:03:15.440Z,101519.05
2018-09-19T11:05:43.782Z,101525.59
2018-09-19T11:08:12.748Z,101529.38
2018-09-19T11:10:41.046Z,101526.50
2018-09-19T11:13:09.364Z,101528.86
2018-09-19T11:15:37.112Z,101529.05
2018-09-19T11:18:06.013Z,101532.92
2018-09-19T11:20:34.341Z,101538.13
2018-09-19T11:23:02.647Z,101530.20
2018-09-19T11:25:31.000Z,101537.75
2018-09-19T11:27:58.752Z,101535.84
2018-09-19T11:30:27.669Z,101538.28
2018-09-19T11:32:56.010Z,101539.85
2018-09-19T11:35:24.362Z,101542.77
2018-09-19T11:37:52.686Z,101543.59
2018-09-19T11:40:21.055Z,101541.05
2018-09-19T11:42:49.380Z,101543.38
2018-09-19T11:45:17.118Z,101540.59
2018-09-19T11:47:45.434Z,101540.70
2018-09-19T11:50:14.416Z,101549.88
2018-09-19T11:52:42.735Z,101555.77
2018-09-19T11:55:11.066Z,101560.25
2018-09-19T11:57:39.396Z,101550.89
2018-09-19T12:00:07.771Z,101543.41
2018-09-19T12:02:35.516Z,101545.78
2018-09-19T12:05:04.412Z,101556.34
2018-09-19T12:07:32.748Z,101554.79
2018-09-19T12:10:01.095Z,101554.43
2018-09-19T12:12:29.429Z,101550.66
2018-09-19T12:14:57.751Z,101552.45
2018-09-19T12:17:25.495Z,101556.70
2018-09-19T12:19:53.816Z,101560.34
2018-09-19T12:22:22.717Z,101565.70
2018-09-19T12:24:51.045Z,101560.25
2018-09-19T12:27:19.366Z,101565.13
2018-09-19T12:29:47.701Z,101567.53
2018-09-19T12:32:16.037Z,101567.86
2018-09-19T12:34:44.371Z,101569.55
2018-09-19T12:37:12.687Z,101570.70
2018-09-19T12:39:40.465Z,101565.95
2018-09-19T12:42:08.777Z,101564.66
2018-09-19T12:44:37.675Z,101560.13
2018-09-19T12:47:06.069Z,101563.91
2018-09-19T12:49:34.401Z,101564.05
2018-09-19T12:52:02.150Z,101564.88
2018-09-19T12:54:31.057Z,101564.98
2018-09-19T12:56:58.807Z,101570.11
2018-09-19T12:59:27.724Z,101567.77
2018-09-19T13:01:55.477Z,101568.52
2018-09-19T13:04:24.374Z,101572.83
2018-09-19T13:06:52.691Z,101565.73
2018-09-19T13:09:21.023Z,101566.95
2018-09-19T13:11:49.051Z,101558.07
2018-09-19T13:14:17.072Z,101558.17
2018-09-19T13:16:45.987Z,101554.92
2018-09-19T13:19:14.318Z,101555.97
2018-09-19T13:21:42.647Z,101561.86
2018-09-19T13:24:10.955Z,101561.63
2018-09-19T13:26:38.706Z,101562.34
2018-09-19T13:29:07.029Z,101554.92
2018-09-19T13:31:35.354Z,101554.06
2018-09-19T13:34:03.698Z,101561.31
2018-09-19T13:36:31.996Z,101555.86
2018-09-19T13:39:00.907Z,101548.18
2018-09-19T13:41:29.227Z,101555.25
2018-09-19T13:43:57.573Z,101564.98
2018-09-19T13:46:25.911Z,101567.61
2018-09-19T13:48:54.234Z,101573.89
2018-09-19T13:51:22.543Z,101573.34
2018-09-19T13:53:50.910Z,101575.58
2018-09-19T13:56:19.230Z,101574.17
2018-09-19T13:58:47.587Z,101575.87
2018-09-19T14:01:15.883Z,101580.98
2018-09-19T14:03:44.199Z,101582.52
2018-09-19T14:06:12.521Z,101575.48
2018-09-19T14:08:40.852Z,101577.31
2018-09-19T14:11:09.192Z,101577.08
2018-09-19T14:13:37.523Z,101574.66
2018-09-19T14:16:05.868Z,101569.00
2018-09-19T14:18:34.185Z,101571.67
2018-09-19T14:21:01.990Z,101578.87
2018-09-19T14:23:30.912Z,101580.64
2018-09-19T14:25:58.675Z,101581.17
2018-09-19T14:28:27.621Z,101582.86
2018-09-19T14:30:55.908Z,101579.91
2018-09-19T14:33:24.236Z,101578.05
2018-09-19T14:35:52.167Z,101575.91
2018-09-19T14:38:20.946Z,101580.63
2018-09-19T14:40:49.124Z,101581.70
2018-09-19T14:43:17.033Z,101589.16
2018-09-19T14:45:45.993Z,101590.77
2018-09-19T14:48:14.358Z,101587.23
2018-09-19T14:50:42.149Z,101588.41
2018-09-19T14:53:11.064Z,101588.30
2018-09-19T14:55:38.801Z,101585.81
2018-09-19T14:58:07.723Z,101587.42
2018-09-19T15:00:36.038Z,101590.36
2018-09-19T15:03:04.360Z,101598.44
2018-09-19T15:05:32.118Z,101601.98
2018-09-19T15:08:01.034Z,101602.97
2018-09-19T15:10:28.774Z,101601.56
2018-09-19T15:12:57.671Z,101600.73
2018-09-19T15:15:26.001Z,101595.43
2018-09-19T15:17:54.328Z,101589.28
2018-09-19T15:20:22.681Z,101593.03
2018-09-19T15:22:51.619Z,101593.41
2018-09-19T15:25:19.339Z,101593.74
2018-09-19T15:27:47.078Z,101596.07
2018-09-19T15:30:15.978Z,101595.66
2018-09-19T15:32:44.383Z,101592.92
2018-09-19T15:35:12.686Z,101587.27
2018-09-19T15:37:41.015Z,101584.59
2018-09-19T15:40:09.329Z,101591.03
2018-09-19T15:42:37.712Z,101590.20
2018-09-19T15:45:08.507Z,101586.72
2018-09-19T15:47:36.890Z,101584.41
2018-09-19T15:50:05.237Z,101585.28
2018-09-19T15:52:33.570Z,101581.61
2018-09-19T15:55:01.900Z,101586.29
2018-09-19T15:57:29.814Z,101587.24
2018-09-19T15:59:58.604Z,101589.21
2018-09-19T16:02:26.943Z,101580.22
2018-09-19T16:04:54.721Z,101586.00
2018-09-19T16:07:23.626Z,101590.59
2018-09-19T16:09:51.950Z,101589.59
2018-09-19T16:12:20.269Z,101589.58
2018-09-19T16:14:48.638Z,101582.14
2018-09-19T16:17:16.410Z,101579.86
2018-09-19T16:19:45.881Z,101582.90
2018-09-19T16:22:14.466Z,101591.02
2018-09-19T16:27:12.200Z,101594.06
2018-09-19T16:29:40.999Z,101590.23
2018-09-19T16:32:08.511Z,101586.49
2018-09-19T16:34:36.855Z,101579.97
2018-09-19T16:37:05.359Z,101574.75
2018-09-19T16:42:32.246Z,101583.88
2018-09-19T16:45:00.834Z,101594.53
2018-09-19T16:47:30.275Z,101597.80
2018-09-19T16:49:59.809Z,101598.66
2018-09-19T16:52:28.154Z,101603.59
2018-09-19T16:54:56.717Z,101606.48
2018-09-19T16:57:25.106Z,101608.88
2018-09-19T16:59:55.969Z,101611.31
2018-09-19T17:02:24.293Z,101614.84
2018-09-19T17:04:52.903Z,101622.03
2018-09-19T17:07:23.483Z,101622.84
2018-09-19T17:09:51.901Z,101625.27
2018-09-19T17:12:20.414Z,101628.73
2018-09-19T17:14:49.184Z,101626.37
2018-09-19T17:17:17.546Z,101631.83
2018-09-19T17:19:46.522Z,101631.54
2018-09-19T17:22:15.748Z,101627.44
2018-09-19T17:24:44.911Z,101625.52
2018-09-19T17:27:16.878Z,101630.12
2018-09-19T17:29:45.705Z,101632.72
2018-09-19T17:32:14.848Z,101631.91
2018-09-19T17:34:43.288Z,101632.22
2018-09-19T17:37:11.772Z,101633.37
2018-09-19T17:39:40.263Z,101636.71
2018-09-19T17:42:10.485Z,101634.36
2018-09-19T17:44:40.298Z,101636.09
2018-09-19T17:47:08.874Z,101638.00
2018-09-19T17:49:37.309Z,101639.65
2018-09-19T17:52:05.708Z,101635.54
2018-09-19T17:54:38.248Z,101634.55
2018-09-19T17:57:06.659Z,101639.04
2018-09-19T17:59:36.929Z,101638.70
2018-09-19T18:02:05.307Z,101642.12
2018-09-19T18:04:34.083Z,101643.26
2018-09-19T18:07:02.742Z,101644.40
2018-09-19T18:09:31.209Z,101644.94
2018-09-19T18:11:59.557Z,101647.23
2018-09-19T18:14:28.193Z,101641.25
2018-09-19T18:16:55.920Z,101639.78
2018-09-19T18:19:24.267Z,101638.34
2018-09-19T18:21:52.661Z,101637.25
2018-09-19T18:24:21.592Z,101633.16
2018-09-19T18:26:50.009Z,101629.14
2018-09-19T18:29:17.758Z,101634.78
2018-09-19T18:31:46.154Z,101633.77
2018-09-19T18:34:15.069Z,101632.94
2018-09-19T18:36:43.436Z,101629.30
2018-09-19T18:39:11.187Z,101621.67
2018-09-19T18:41:40.205Z,101617.56
2018-09-19T18:44:08.529Z,101614.16
2018-09-19T18:46:36.874Z,101607.35
2018-09-19T18:49:05.248Z,101613.52
2018-09-19T18:51:33.709Z,101615.27
2018-09-19T18:54:02.758Z,101621.18
2018-09-19T18:56:31.127Z,101619.69
2018-09-19T18:58:59.737Z,101625.43
2018-09-19T19:01:28.159Z,101625.56
2018-09-19T19:03:56.561Z,101638.99
2018-09-19T19:06:25.017Z,101644.08
2018-09-19T19:08:54.715Z,101646.13
2018-09-19T19:11:23.020Z,101648.06
2018-09-19T19:13:51.382Z,101654.45
2018-09-19T19:16:24.768Z,101658.28
2018-09-19T19:18:52.671Z,101658.96
2018-09-19T19:21:20.943Z,101664.94
2018-09-19T19:23:50.117Z,101668.75
2018-09-19T19:26:18.763Z,101672.50
2018-09-19T19:28:47.206Z,101675.02
2018-09-19T19:31:15.561Z,101675.60
2018-09-19T19:33:44.061Z,101681.13
2018-09-19T19:36:11.824Z,101678.92
2018-09-19T19:38:41.721Z,101679.72
2018-09-19T19:41:10.149Z,101681.53
2018-09-19T19:43:38.925Z,101680.38
2018-09-19T19:46:07.302Z,101677.31
2018-09-19T19:48:37.999Z,101673.70
2018-09-19T19:51:06.105Z,101676.15
2018-09-19T19:53:35.737Z,101671.00
2018-09-19T19:56:04.483Z,101664.16
2018-09-19T19:58:32.871Z,101666.76
2018-09-19T20:01:01.297Z,101662.31
2018-09-19T20:03:29.262Z,101665.89
2018-09-19T20:05:57.825Z,101661.98
2018-09-19T20:08:26.572Z,101657.90
2018-09-19T20:10:54.935Z,101653.59
2018-09-19T20:13:23.281Z,101652.83
2018-09-19T20:15:51.639Z,101648.22
2018-09-19T20:18:19.466Z,101652.02
2018-09-19T20:20:48.554Z,101654.41
2018-09-19T20:23:16.170Z,101646.09
2018-09-19T20:25:45.052Z,101650.94
2018-09-19T20:28:13.572Z,101652.87
2018-09-19T20:30:42.018Z,101652.28
2018-09-19T20:33:11.463Z,101656.20
2018-09-19T20:35:38.752Z,101661.14
2018-09-19T20:38:07.172Z,101659.49
2018-09-19T20:40:35.542Z,101657.75
2018-09-19T20:43:03.907Z,101654.48
2018-09-19T20:45:32.248Z,101656.19
2018-09-19T20:48:00.699Z,101662.46
2018-09-19T20:50:29.793Z,101660.77
2018-09-19T20:52:58.128Z,101657.57
2018-09-19T20:55:26.512Z,101654.77
2018-09-19T20:57:54.259Z,101653.58
2018-09-19T21:00:23.185Z,101657.09
2018-09-19T21:02:52.204Z,101655.56
2018-09-19T21:05:19.747Z,101651.55
2018-09-19T21:07:48.655Z,101653.61
2018-09-19T21:10:17.023Z,101650.92
2018-09-19T21:12:45.360Z,101655.06
2018-09-19T21:15:13.695Z,101651.80
2018-09-19T21:17:42.027Z,101649.06
2018-09-19T21:20:10.377Z,101641.39
2018-09-19T21:22:38.754Z,101647.11
2018-09-19T21:25:06.465Z,101644.83
2018-09-19T21:27:34.814Z,101642.14
2018-09-19T21:30:03.735Z,101644.28
2018-09-19T21:32:31.491Z,101638.95
2018-09-19T21:35:00.402Z,101636.38
2018-09-19T21:37:28.731Z,101628.06
2018-09-19T21:39:58.199Z,101630.47
2018-09-19T21:42:25.441Z,101637.09
2018-09-19T21:44:53.188Z,101638.84
2018-09-19T21:47:21.522Z,101637.82
2018-09-19T21:49:50.670Z,101634.86
2018-09-19T21:52:18.782Z,101633.30
2018-09-19T21:54:47.124Z,101629.97
2018-09-19T21:57:14.896Z,101629.09
2018-09-19T21:59:43.806Z,101626.77
2018-09-19T22:02:12.138Z,101629.09
2018-09-19T22:04:40.471Z,101632.20
2018-09-19T22:07:08.217Z,101630.25
2018-09-19T22:09:36.562Z,101630.66
2018-09-19T22:12:05.471Z,101628.88
2018-09-19T22:14:33.226Z,101628.12
2018-09-19T22:17:02.139Z,101622.99
2018-09-19T22:19:29.902Z,101615.39
2018-09-19T22:21:58.816Z,101618.78
2018-09-19T22:24:26.571Z,101618.69
2018-09-19T22:26:55.487Z,101619.24
2018-09-19T22:29:23.816Z,101616.18
2018-09-19T22:31:51.580Z,101612.64
2018-09-19T22:34:20.505Z,101611.36
2018-09-19T22:36:48.845Z,101611.48
2018-09-19T22:39:17.166Z,101606.06
2018-09-19T22:41:45.510Z,101605.16
2018-09-19T22:44:13.266Z,101602.73
2018-09-19T22:46:42.174Z,101603.67
2018-09-19T22:49:09.921Z,101601.22
2018-09-19T22:51:38.845Z,101602.69
2018-09-19T22:54:06.584Z,101601.39
2018-09-19T22:56:35.507Z,101603.30
2018-09-19T22:59:03.261Z,101604.89
2018-09-19T23:01:32.168Z,101599.99
2018-09-19T23:04:01.479Z,101597.92
2018-09-19T23:06:28.262Z,101596.22
2018-09-19T23:08:56.602Z,101597.00
2018-09-19T23:11:24.943Z,101587.17
2018-09-19T23:13:53.285Z,101584.19
2018-09-19T23:16:21.617Z,101582.39
2018-09-19T23:18:49.954Z,101582.92
2018-09-19T23:21:18.285Z,101579.30
2018-09-19T23:23:47.186Z,101576.08
2018-09-19T23:26:15.528Z,101577.90
2018-09-19T23:28:43.876Z,101571.06
2018-09-19T23:31:11.625Z,101566.78
2018-09-19T23:33:39.956Z,101567.61
2018-09-19T23:36:09.469Z,101568.07
2018-09-19T23:38:37.200Z,101569.89
2018-09-19T23:41:04.949Z,101565.74
2018-09-19T23:43:33.864Z,101563.38
2018-09-19T23:46:02.197Z,101561.03
2018-09-19T23:48:30.562Z,101558.45
2018-09-19T23:50:58.856Z,101557.45
2018-09-19T23:53:27.412Z,101557.30
2018-09-19T23:55:55.509Z,101558.25
2018-09-19T23:58:23.262Z,101558.30
